Time;durP1;ratioP1;P1;durP2;ratioP2;P2;SDS_P1;SDS_P2;PMS_P1;PMS_P2;Temp;Humidity;BMP_temperature;BMP_pressure;BME280_temperature;BME280_humidity;BME280_pressure;Samples;Min_cycle;Max_cycle;Signal;HPM_P1;HPM_P2
2022/11/20 00:01:33;;;;;;;;;;;;;;;4.23;56.67;100162.19;5072631;28;20391;-60
2022/11/20 00:03:58;;;;;;;;;;;;;;;4.25;56.60;100164.78;5072650;28;19995;-60
2022/11/20 00:06:24;;;;;;;;;;;;;;;4.33;56.56;100163.06;5072810;28;19921;-61
2022/11/20 00:08:50;;;;;;;;;;;;;;;4.34;56.30;100163.03;5073195;28;20019;-60
2022/11/20 00:11:19;;;;;;;;;;;;;;;4.30;56.48;100165.66;5088707;28;20384;-60
2022/11/20 00:13:45;;;;;;;;;;;;;;;4.36;56.28;100163.06;5073244;28;19916;-61
2022/11/20 00:16:11;;;;;;;;;;;;;;;4.29;56.50;100163.94;5071759;28;19944;-61
2022/11/20 00:18:36;;;;;;;;;;;;;;;4.19;56.28;100163.94;5073223;28;19924;-61
2022/11/20 00:21:31;;;;;;;;;;;;;;;4.29;56.39;100161.31;5073157;28;20283;-60
2022/11/20 00:23:57;;;;;;;;;;;;;;;4.37;56.13;100154.38;5063454;28;20386;-61
2022/11/20 00:26:23;;;;;;;;;;;;;;;4.38;56.18;100162.19;5072514;28;19916;-61
2022/11/20 00:28:50;;;;;;;;;;;;;;;4.42;55.77;100156.09;5071654;28;19917;-61
2022/11/20 00:31:15;;;;;;;;;;;;;;;4.41;55.88;100161.31;5071789;28;19916;-60
2022/11/20 00:33:41;;;;;;;;;;;;;;;4.46;55.96;100159.59;5075522;28;19921;-60
2022/11/20 00:36:08;;;;;;;;;;;;;;;4.38;55.89;100156.13;5092262;28;19928;-61
2022/11/20 00:38:34;;;;;;;;;;;;;;;4.46;55.82;100159.59;5075080;28;19920;-61
2022/11/20 00:41:00;;;;;;;;;;;;;;;4.42;55.72;100161.31;5081339;28;19916;-60
2022/11/20 00:43:26;;;;;;;;;;;;;;;4.47;55.66;100165.66;5096808;28;20362;-61
2022/11/20 00:45:55;;;;;;;;;;;;;;;4.40;55.72;100165.66;5085003;28;19917;-61
2022/11/20 00:48:21;;;;;;;;;;;;;;;4.33;55.87;100170.88;5078580;28;19962;-60
2022/11/20 00:50:46;;;;;;;;;;;;;;;4.14;56.26;100169.97;5095239;28;19971;-60
2022/11/20 00:53:11;;;;;;;;;;;;;;;4.23;56.42;100164.81;5087192;28;20339;-60
2022/11/20 00:55:36;;;;;;;;;;;;;;;4.25;56.08;100170.00;5076074;28;19921;-61
2022/11/20 00:58:02;;;;;;;;;;;;;;;4.30;56.07;100163.91;5076339;28;19978;-60
2022/11/20 01:00:27;;;;;;;;;;;;;;;4.24;56.10;100163.94;5076290;28;19939;-61
2022/11/20 01:02:52;;;;;;;;;;;;;;;4.28;56.17;100175.22;5108841;28;19970;-61
2022/11/20 01:05:17;;;;;;;;;;;;;;;4.22;56.08;100164.78;5117946;27;19920;-61
2022/11/20 01:07:43;;;;;;;;;;;;;;;4.23;56.23;100166.50;5095637;28;19920;-61
2022/11/20 01:10:08;;;;;;;;;;;;;;;4.26;56.16;100167.38;5096210;28;19923;-59
2022/11/20 01:12:33;;;;;;;;;;;;;;;4.24;56.15;100163.94;5083797;28;20401;-59
2022/11/20 01:14:58;;;;;;;;;;;;;;;4.23;56.19;100169.09;5076114;28;20379;-61
2022/11/20 01:17:24;;;;;;;;;;;;;;;4.27;56.22;100169.13;5075698;28;19981;-61
2022/11/20 01:19:50;;;;;;;;;;;;;;;4.23;56.06;100163.91;5075837;28;19925;-60
2022/11/20 01:22:15;;;;;;;;;;;;;;;4.28;55.74;100164.81;5075351;28;19927;-61
2022/11/20 01:24:40;;;;;;;;;;;;;;;4.26;55.89;100167.38;5083245;28;19920;-59
2022/11/20 01:27:06;;;;;;;;;;;;;;;4.22;56.07;100169.97;5094898;28;19920;-59
2022/11/20 01:29:31;;;;;;;;;;;;;;;4.17;55.95;100172.59;5081127;28;19927;-61
2022/11/20 01:31:56;;;;;;;;;;;;;;;4.23;55.89;100166.50;5075689;28;19920;-61
2022/11/20 01:34:22;;;;;;;;;;;;;;;4.10;56.18;100170.84;5075392;28;19924;-62
2022/11/20 01:36:48;;;;;;;;;;;;;;;4.18;55.89;100169.97;5075190;28;19920;-61
2022/11/20 01:39:14;;;;;;;;;;;;;;;4.20;55.87;100168.25;5075662;28;19962;-61
2022/11/20 01:44:42;;;;;;;;;;;;;;;4.29;55.26;100182.13;5074838;28;19923;-61
2022/11/20 01:47:09;;;;;;;;;;;;;;;4.24;55.24;100170.88;5075264;28;19964;-60
2022/11/20 01:49:37;;;;;;;;;;;;;;;4.10;55.58;100166.50;5074427;28;20012;-61
2022/11/20 01:52:12;;;;;;;;;;;;;;;4.19;55.64;100174.34;5073349;28;19924;-60
2022/11/20 01:54:44;;;;;;;;;;;;;;;4.18;55.60;100166.50;5072671;28;19966;-60
2022/11/20 01:57:11;;;;;;;;;;;;;;;4.21;55.47;100169.13;5074154;28;20006;-60
2022/11/20 01:59:38;;;;;;;;;;;;;;;4.18;54.93;100164.78;5074874;28;20337;-60
2022/11/20 02:02:04;;;;;;;;;;;;;;;4.17;54.91;100167.38;5073383;28;19963;-60
2022/11/20 02:04:29;;;;;;;;;;;;;;;4.19;55.16;100163.94;5072765;28;19978;-61
2022/11/20 02:07:01;;;;;;;;;;;;;;;4.25;55.09;100164.78;5073674;28;19982;-61
2022/11/20 02:09:27;;;;;;;;;;;;;;;4.16;54.43;100163.06;5072847;28;19964;-59
2022/11/20 02:11:53;;;;;;;;;;;;;;;4.13;54.49;100166.50;5074783;28;19928;-61
2022/11/20 02:14:18;;;;;;;;;;;;;;;4.11;54.59;100165.66;5070509;28;19921;-59
2022/11/20 02:16:45;;;;;;;;;;;;;;;4.06;54.84;100162.16;5074674;28;19921;-59
2022/11/20 02:19:22;;;;;;;;;;;;;;;4.15;54.71;100162.19;5073051;28;19921;-59
2022/11/20 02:21:51;;;;;;;;;;;;;;;4.21;54.62;100158.72;5069867;28;19928;-59
2022/11/20 02:24:18;;;;;;;;;;;;;;;4.25;54.64;100164.78;5073633;28;19920;-60
2022/11/20 02:26:52;;;;;;;;;;;;;;;4.26;54.43;100158.72;5072060;28;19939;-60
2022/11/20 02:29:23;;;;;;;;;;;;;;;4.09;54.31;100162.16;5073557;28;20156;-61
2022/11/20 02:31:48;;;;;;;;;;;;;;;3.85;54.84;100165.59;5074220;28;19924;-60
2022/11/20 02:34:13;;;;;;;;;;;;;;;3.89;55.18;100164.75;5074327;28;19920;-60
2022/11/20 02:36:40;;;;;;;;;;;;;;;3.88;55.18;100155.22;5069295;28;19931;-61
2022/11/20 02:39:06;;;;;;;;;;;;;;;3.84;55.26;100155.22;5071603;28;20054;-60
2022/11/20 02:41:32;;;;;;;;;;;;;;;3.91;55.18;100156.94;5072593;28;20003;-60
2022/11/20 02:43:57;;;;;;;;;;;;;;;3.85;55.19;100155.19;5072459;28;20302;-60
2022/11/20 02:46:23;;;;;;;;;;;;;;;3.90;55.15;100163.88;5088328;28;20011;-60
2022/11/20 02:48:48;;;;;;;;;;;;;;;3.76;55.12;100154.31;5073042;28;19954;-61
2022/11/20 02:51:13;;;;;;;;;;;;;;;3.76;55.18;100154.31;5073250;28;19924;-61
2022/11/20 02:53:38;;;;;;;;;;;;;;;3.67;55.47;100156.03;5073024;28;19927;-61
2022/11/20 02:56:04;;;;;;;;;;;;;;;3.61;55.62;100153.41;5073204;28;19975;-61
2022/11/20 02:58:29;;;;;;;;;;;;;;;3.59;55.87;100155.16;5072310;28;20342;-61
2022/11/20 03:00:54;;;;;;;;;;;;;;;3.61;55.87;100148.22;5073517;28;19975;-60
2022/11/20 03:03:20;;;;;;;;;;;;;;;3.73;56.03;100143.91;5073181;28;19921;-61
2022/11/20 03:05:45;;;;;;;;;;;;;;;3.63;56.04;100130.91;5072700;28;19920;-61
2022/11/20 03:08:10;;;;;;;;;;;;;;;3.61;56.18;100140.41;5055000;28;19951;-61
2022/11/20 03:10:35;;;;;;;;;;;;;;;3.71;56.32;100143.94;5073098;28;19920;-61
2022/11/20 03:13:01;;;;;;;;;;;;;;;3.69;56.63;100141.31;5070579;28;20360;-60
2022/11/20 03:15:26;;;;;;;;;;;;;;;3.70;56.71;100132.63;5071704;28;19925;-60
2022/11/20 03:17:55;;;;;;;;;;;;;;;3.66;56.80;100133.50;5072734;28;19984;-60
2022/11/20 03:20:20;;;;;;;;;;;;;;;3.66;56.70;100130.91;5073848;28;19928;-60
2022/11/20 03:22:45;;;;;;;;;;;;;;;3.59;56.86;100130.88;5070994;28;19920;-60
2022/11/20 03:25:11;;;;;;;;;;;;;;;3.61;56.79;100124.81;5072772;28;20376;-60
2022/11/20 03:27:36;;;;;;;;;;;;;;;3.61;56.87;100123.97;5071180;28;20363;-61
2022/11/20 03:30:02;;;;;;;;;;;;;;;3.69;56.96;100123.13;5070713;28;20330;-61
2022/11/20 03:32:28;;;;;;;;;;;;;;;3.69;57.00;100124.84;5072360;28;19924;-60
2022/11/20 03:34:53;;;;;;;;;;;;;;;3.79;57.02;100126.63;5071612;28;19924;-61
2022/11/20 03:37:18;;;;;;;;;;;;;;;3.78;56.91;100124.00;5072484;28;19975;-60
2022/11/20 03:39:43;;;;;;;;;;;;;;;3.84;56.75;100119.69;5071613;28;19920;-61
2022/11/20 03:42:44;;;;;;;;;;;;;;;3.91;56.56;100123.13;5072807;28;19956;-61
2022/11/20 03:44:54;;;;;;;;;;;;;;;3.92;56.50;100115.38;5056919;28;19928;-60
2022/11/20 03:47:19;;;;;;;;;;;;;;;3.97;56.52;100122.31;5055444;28;20330;-61
2022/11/20 03:49:44;;;;;;;;;;;;;;;3.98;56.48;100124.03;5071905;28;19928;-60
2022/11/20 03:52:10;;;;;;;;;;;;;;;3.98;56.35;100122.28;5073717;28;19928;-61
2022/11/20 03:54:35;;;;;;;;;;;;;;;4.05;56.26;100116.22;5072245;28;20365;-61
2022/11/20 03:57:00;;;;;;;;;;;;;;;4.05;56.27;100111.03;5069861;28;19925;-62
2022/11/20 03:59:25;;;;;;;;;;;;;;;4.04;56.28;100119.72;5070470;28;19924;-61
2022/11/20 04:01:51;;;;;;;;;;;;;;;4.08;56.20;100121.44;5072973;28;19967;-60
2022/11/20 04:04:16;;;;;;;;;;;;;;;4.06;56.41;100120.56;5071183;28;19924;-62
2022/11/20 04:06:43;;;;;;;;;;;;;;;4.24;55.94;100119.72;5069417;28;20235;-61
2022/11/20 04:09:08;;;;;;;;;;;;;;;4.26;55.75;100123.16;5073488;28;19970;-61
2022/11/20 04:11:35;;;;;;;;;;;;;;;4.23;55.89;100124.91;5076211;28;19920;-60
2022/11/20 04:14:02;;;;;;;;;;;;;;;4.16;56.11;100121.44;5075790;28;19921;-61
2022/11/20 04:16:32;;;;;;;;;;;;;;;4.09;56.09;100125.78;5075385;28;19921;-61
2022/11/20 04:18:58;;;;;;;;;;;;;;;4.15;56.08;100118.00;5079595;28;19920;-62
2022/11/20 04:21:24;;;;;;;;;;;;;;;3.99;56.42;100125.75;5076231;28;19927;-61
2022/11/20 04:23:49;;;;;;;;;;;;;;;3.96;56.75;100124.03;5074830;28;19916;-60
2022/11/20 04:26:15;;;;;;;;;;;;;;;3.93;56.80;100117.09;5075891;28;19927;-61
2022/11/20 04:28:40;;;;;;;;;;;;;;;3.91;56.89;100115.34;5076173;28;19920;-61
2022/11/20 04:31:06;;;;;;;;;;;;;;;3.98;56.87;100122.28;5076030;28;19920;-61
2022/11/20 04:33:32;;;;;;;;;;;;;;;3.94;56.88;100112.75;5075094;28;19961;-60
2022/11/20 04:36:05;;;;;;;;;;;;;;;3.95;56.92;100117.97;5075464;28;19920;-61
2022/11/20 04:38:30;;;;;;;;;;;;;;;3.91;56.96;100112.75;5076843;28;19927;-61
2022/11/20 04:40:59;;;;;;;;;;;;;;;3.97;57.00;100110.16;5075777;28;20003;-61
2022/11/20 04:43:25;;;;;;;;;;;;;;;3.90;57.24;100111.00;5074581;28;19921;-61
2022/11/20 04:45:54;;;;;;;;;;;;;;;4.00;56.99;100104.97;5074478;28;20019;-61
2022/11/20 04:48:20;;;;;;;;;;;;;;;4.01;56.87;100111.91;5072052;28;19928;-61
2022/11/20 04:50:45;;;;;;;;;;;;;;;3.97;56.92;100115.38;5075000;28;20277;-59
2022/11/20 04:53:10;;;;;;;;;;;;;;;4.02;57.06;100108.44;5075765;28;20414;-61
2022/11/20 04:55:35;;;;;;;;;;;;;;;4.05;57.03;100111.03;5076115;28;19925;-59
2022/11/20 04:58:01;;;;;;;;;;;;;;;4.12;56.63;100110.19;5058907;28;20464;-59
2022/11/20 05:00:26;;;;;;;;;;;;;;;4.02;57.01;100121.44;5073728;28;20320;-60
2022/11/20 05:02:51;;;;;;;;;;;;;;;4.11;56.66;100105.84;5074866;28;19924;-61
2022/11/20 05:05:16;;;;;;;;;;;;;;;4.12;56.84;100111.91;5075321;28;19924;-59
2022/11/20 05:07:42;;;;;;;;;;;;;;;4.09;56.81;100107.56;5075584;28;20023;-59
2022/11/20 05:10:07;;;;;;;;;;;;;;;4.16;56.57;100103.25;5075204;28;20288;-60
2022/11/20 05:12:32;;;;;;;;;;;;;;;4.06;57.02;100104.09;5074233;28;19928;-60
2022/11/20 05:14:57;;;;;;;;;;;;;;;4.13;56.85;100098.91;5075612;28;19921;-60
2022/11/20 05:17:23;;;;;;;;;;;;;;;4.10;56.79;100101.50;5074632;28;19924;-60
2022/11/20 05:19:48;;;;;;;;;;;;;;;4.10;56.82;100098.91;5069030;28;20413;-61
2022/11/20 05:22:13;;;;;;;;;;;;;;;4.09;57.04;100097.16;5072083;28;20034;-60
2022/11/20 05:24:38;;;;;;;;;;;;;;;4.13;56.88;100087.63;5070191;28;19921;-60
2022/11/20 05:27:04;;;;;;;;;;;;;;;4.18;56.82;100085.88;5086866;28;19929;-63
2022/11/20 05:29:29;;;;;;;;;;;;;;;4.24;56.90;100082.44;5071504;28;19925;-61
2022/11/20 05:31:54;;;;;;;;;;;;;;;4.24;56.82;100077.25;5071774;28;19921;-60
2022/11/20 05:34:19;;;;;;;;;;;;;;;4.19;56.81;100082.44;5070060;28;19925;-61
2022/11/20 05:36:45;;;;;;;;;;;;;;;4.12;57.09;100076.38;5073181;28;19921;-60
2022/11/20 05:39:10;;;;;;;;;;;;;;;4.19;57.02;100075.50;5072722;28;20078;-61
2022/11/20 05:41:35;;;;;;;;;;;;;;;4.19;57.01;100080.72;5105400;28;19920;-60
2022/11/20 05:44:00;;;;;;;;;;;;;;;4.16;57.08;100074.63;5072251;28;19925;-58
2022/11/20 05:46:26;;;;;;;;;;;;;;;4.16;57.17;100075.50;5072879;28;19930;-61
2022/11/20 05:48:51;;;;;;;;;;;;;;;4.14;57.21;100069.41;5071696;28;19935;-60
2022/11/20 05:51:18;;;;;;;;;;;;;;;4.17;57.29;100063.38;5074473;28;20054;-61
2022/11/20 05:53:43;;;;;;;;;;;;;;;4.23;57.31;100065.97;5072613;28;19931;-61
2022/11/20 05:56:10;;;;;;;;;;;;;;;4.29;57.07;100060.75;5074537;28;20287;-60
2022/11/20 05:58:36;;;;;;;;;;;;;;;4.32;56.92;100063.34;5066264;28;20391;-60
2022/11/20 06:01:04;;;;;;;;;;;;;;;4.29;57.12;100063.34;5055798;28;19959;-61
2022/11/20 06:03:29;;;;;;;;;;;;;;;4.36;56.88;100061.63;5072616;28;19928;-61
2022/11/20 06:05:55;;;;;;;;;;;;;;;4.26;57.24;100058.16;5074429;28;20295;-60
2022/11/20 06:08:20;;;;;;;;;;;;;;;4.31;57.18;100061.63;5073204;28;19939;-61
2022/11/20 06:10:45;;;;;;;;;;;;;;;4.38;57.09;100058.13;5073892;28;19921;-59
2022/11/20 06:13:10;;;;;;;;;;;;;;;4.39;56.92;100061.63;5071808;28;19932;-62
2022/11/20 06:15:36;;;;;;;;;;;;;;;4.39;57.14;100052.06;5105464;28;20307;-59
2022/11/20 06:18:01;;;;;;;;;;;;;;;4.47;57.01;100061.56;5087979;28;19924;-60
2022/11/20 06:20:26;;;;;;;;;;;;;;;4.46;57.14;100058.13;5070838;28;19987;-60
2022/11/20 06:22:51;;;;;;;;;;;;;;;4.50;57.18;100057.25;5071089;28;19924;-60
2022/11/20 06:25:17;;;;;;;;;;;;;;;4.34;57.68;100063.34;5071554;28;19964;-60
2022/11/20 06:27:42;;;;;;;;;;;;;;;4.40;57.56;100060.75;5073900;28;19946;-60
2022/11/20 06:30:07;;;;;;;;;;;;;;;4.45;57.62;100059.00;5073418;28;20348;-60
2022/11/20 06:32:33;;;;;;;;;;;;;;;4.48;57.82;100063.34;5053560;28;19986;-60
2022/11/20 06:34:58;;;;;;;;;;;;;;;4.52;57.80;100055.50;5055533;28;20394;-60
2022/11/20 06:37:23;;;;;;;;;;;;;;;4.47;57.64;100052.06;5073872;28;20332;-59
2022/11/20 06:39:48;;;;;;;;;;;;;;;4.58;57.41;100060.69;5073905;28;20296;-60
2022/11/20 06:42:14;;;;;;;;;;;;;;;4.63;57.40;100058.09;5073279;28;19928;-59
2022/11/20 06:44:39;;;;;;;;;;;;;;;4.64;57.44;100060.69;5072490;28;19930;-60
2022/11/20 06:47:04;;;;;;;;;;;;;;;4.66;57.50;100052.84;5072150;28;20393;-61
2022/11/20 06:49:30;;;;;;;;;;;;;;;4.63;57.65;100055.50;5054046;28;19948;-59
2022/11/20 06:51:55;;;;;;;;;;;;;;;4.63;57.65;100053.75;5055902;28;19963;-59
2022/11/20 06:54:20;;;;;;;;;;;;;;;4.60;57.80;100058.09;5072356;28;20372;-60
2022/11/20 06:56:48;;;;;;;;;;;;;;;4.69;57.77;100050.25;5072550;28;19944;-61
2022/11/20 06:59:14;;;;;;;;;;;;;;;4.61;57.84;100057.22;5088180;28;20395;-60
2022/11/20 07:01:39;;;;;;;;;;;;;;;4.72;57.59;100047.66;5069789;28;19963;-60
2022/11/20 07:04:04;;;;;;;;;;;;;;;4.81;57.74;100044.16;5072452;28;20232;-60
2022/11/20 07:06:30;;;;;;;;;;;;;;;4.69;57.69;100042.44;5073369;28;19993;-60
2022/11/20 07:08:55;;;;;;;;;;;;;;;4.67;57.69;100039.88;5072450;28;20311;-60
2022/11/20 07:11:21;;;;;;;;;;;;;;;4.66;57.99;100047.66;5071695;28;19972;-58
2022/11/20 07:13:46;;;;;;;;;;;;;;;4.68;57.81;100045.94;5072105;28;20453;-59
2022/11/20 07:16:11;;;;;;;;;;;;;;;4.68;57.88;100043.34;5061116;28;20018;-59
2022/11/20 07:18:36;;;;;;;;;;;;;;;4.73;57.80;100046.78;5075814;28;19925;-60
2022/11/20 07:21:02;;;;;;;;;;;;;;;4.75;57.55;100042.44;5074024;28;19924;-59
2022/11/20 07:23:27;;;;;;;;;;;;;;;4.75;57.27;100036.34;5071385;28;19920;-60
2022/11/20 07:25:53;;;;;;;;;;;;;;;4.70;57.36;100039.84;5073224;28;19924;-59
2022/11/20 07:28:18;;;;;;;;;;;;;;;4.74;57.40;100037.22;5071506;28;19943;-60
2022/11/20 07:30:48;;;;;;;;;;;;;;;4.86;57.08;100037.19;5073077;28;19924;-60
2022/11/20 07:33:14;;;;;;;;;;;;;;;4.82;57.15;100038.06;5072711;28;20391;-60
2022/11/20 07:35:39;;;;;;;;;;;;;;;4.90;57.15;100036.28;5071671;28;19925;-61
2022/11/20 07:38:04;;;;;;;;;;;;;;;4.84;57.20;100032.00;5069804;28;19968;-61
2022/11/20 07:40:29;;;;;;;;;;;;;;;4.97;56.34;100035.41;5071887;28;19925;-60
2022/11/20 07:42:55;;;;;;;;;;;;;;;5.01;56.52;100038.88;5072260;28;19928;-60
2022/11/20 07:45:22;;;;;;;;;;;;;;;5.05;56.32;100025.81;5073263;28;20027;-61
2022/11/20 07:47:47;;;;;;;;;;;;;;;5.10;56.18;100029.25;5075011;28;20301;-61
2022/11/20 07:50:13;;;;;;;;;;;;;;;5.17;55.93;100022.28;5075137;28;19928;-59
2022/11/20 07:52:39;;;;;;;;;;;;;;;5.19;55.89;100023.16;5072923;28;19920;-61
2022/11/20 07:55:04;;;;;;;;;;;;;;;5.21;55.65;100024.00;5056371;28;19925;-60
2022/11/20 07:57:30;;;;;;;;;;;;;;;5.17;55.68;100009.25;5076816;28;20376;-61
2022/11/20 07:59:55;;;;;;;;;;;;;;;5.32;55.45;100011.78;5074819;28;19943;-60
2022/11/20 08:02:20;;;;;;;;;;;;;;;5.43;55.14;100016.94;5075223;28;19920;-61
2022/11/20 08:04:46;;;;;;;;;;;;;;;5.57;54.93;100017.69;5075561;28;19927;-61
2022/11/20 08:07:11;;;;;;;;;;;;;;;5.67;54.42;100016.75;5075744;28;19973;-61
2022/11/20 08:09:36;;;;;;;;;;;;;;;5.74;54.08;100014.09;5074966;28;19920;-60
2022/11/20 08:14:45;;;;;;;;;;;;;;;6.05;53.47;100013.00;5075016;28;20020;-60
2022/11/20 08:17:10;;;;;;;;;;;;;;;6.08;53.38;100018.19;5076153;28;20019;-60
2022/11/20 08:19:35;;;;;;;;;;;;;;;6.02;53.36;100019.97;5079242;28;19931;-62
2022/11/20 08:22:01;;;;;;;;;;;;;;;6.08;53.18;100022.53;5078270;28;19986;-61
2022/11/20 08:24:26;;;;;;;;;;;;;;;6.20;53.05;100016.34;5076165;28;19971;-61
2022/11/20 08:26:51;;;;;;;;;;;;;;;6.21;53.13;100018.94;5076291;28;20264;-59
2022/11/20 08:29:17;;;;;;;;;;;;;;;6.22;53.05;100020.66;5075571;28;19933;-59
2022/11/20 08:31:42;;;;;;;;;;;;;;;6.32;52.64;100014.47;5076213;28;19931;-61
2022/11/20 08:34:08;;;;;;;;;;;;;;;6.35;52.42;100010.97;5075858;28;19933;-62
2022/11/20 08:36:34;;;;;;;;;;;;;;;6.53;52.34;100015.13;5074215;28;19924;-61
2022/11/20 08:39:00;;;;;;;;;;;;;;;6.62;51.89;100013.28;5076205;28;19950;-61
2022/11/20 08:41:26;;;;;;;;;;;;;;;6.72;51.90;100014.03;5075984;28;19966;-62
2022/11/20 08:43:56;;;;;;;;;;;;;;;6.87;51.94;100005.16;5107519;28;19924;-60
2022/11/20 08:46:22;;;;;;;;;;;;;;;7.00;51.30;100009.34;5073192;28;19925;-61
2022/11/20 08:48:47;;;;;;;;;;;;;;;6.88;51.13;100019.94;5069319;28;20040;-60
2022/11/20 08:51:13;;;;;;;;;;;;;;;7.01;51.25;100013.66;5072752;28;20015;-62
2022/11/20 08:53:38;;;;;;;;;;;;;;;7.07;51.45;100007.53;5059073;28;19935;-62
2022/11/20 08:56:04;;;;;;;;;;;;;;;7.06;50.81;100011.88;5072159;28;19971;-61
2022/11/20 08:58:29;;;;;;;;;;;;;;;7.06;50.97;100006.66;5056100;28;20154;-62
2022/11/20 09:00:54;;;;;;;;;;;;;;;6.98;51.04;100003.28;5073561;28;19971;-63
2022/11/20 09:03:20;;;;;;;;;;;;;;;6.85;51.18;100012.13;5074475;28;19925;-62
2022/11/20 09:05:45;;;;;;;;;;;;;;;6.88;51.36;100007.75;5072771;28;20429;-62
2022/11/20 09:08:11;;;;;;;;;;;;;;;6.79;51.59;100007.00;5072328;28;20436;-64
2022/11/20 09:10:36;;;;;;;;;;;;;;;6.73;51.46;100002.69;5074382;28;20447;-62
2022/11/20 09:13:01;;;;;;;;;;;;;;;6.74;51.77;100006.19;5076327;28;20403;-64
2022/11/20 09:15:27;;;;;;;;;;;;;;;6.73;51.76;100007.06;5073935;28;19933;-63
2022/11/20 09:17:53;;;;;;;;;;;;;;;6.63;51.77;100001.97;5075020;28;19928;-61
2022/11/20 09:20:18;;;;;;;;;;;;;;;6.49;52.02;100006.47;5072609;28;20031;-62
2022/11/20 09:22:44;;;;;;;;;;;;;;;6.66;52.05;100001.03;5072368;28;20299;-62
2022/11/20 09:25:09;;;;;;;;;;;;;;;6.57;52.65;100002.03;5072721;28;20363;-63
2022/11/20 09:27:35;;;;;;;;;;;;;;;6.65;52.15;100005.41;5071511;28;19917;-63
2022/11/20 09:30:00;;;;;;;;;;;;;;;6.70;52.15;100002.72;5106565;28;20335;-62
2022/11/20 09:32:26;;;;;;;;;;;;;;;6.81;52.07;100000.00;5072790;28;19936;-63
2022/11/20 09:34:51;;;;;;;;;;;;;;;6.95;51.85;99994.63;5072474;28;19920;-63
2022/11/20 09:37:16;;;;;;;;;;;;;;;7.08;51.36;99983.97;5072011;28;19924;-63
2022/11/20 09:39:41;;;;;;;;;;;;;;;7.20;51.09;99982.09;5073793;28;19960;-63
2022/11/20 09:42:33;;;;;;;;;;;;;;;6.99;50.96;99978.88;5071298;28;20429;-62
2022/11/20 09:45:05;;;;;;;;;;;;;;;6.86;51.40;99982.53;5051618;28;19927;-62
2022/11/20 09:47:33;;;;;;;;;;;;;;;6.81;51.50;99964.31;5072111;28;20283;-62
2022/11/20 09:50:08;;;;;;;;;;;;;;;6.73;51.61;99966.16;5072004;28;19930;-62
2022/11/20 09:52:36;;;;;;;;;;;;;;;6.73;51.77;99966.16;5072333;28;19925;-63
2022/11/20 09:55:02;;;;;;;;;;;;;;;6.87;51.57;99971.22;5073960;28;20283;-62
2022/11/20 09:57:34;;;;;;;;;;;;;;;6.86;51.29;99969.47;5074768;28;19933;-63
2022/11/20 10:00:00;;;;;;;;;;;;;;;6.96;51.76;99973.69;5077183;28;19965;-60
2022/11/20 10:02:33;;;;;;;;;;;;;;;6.96;51.16;99973.69;5074149;28;19920;-60
2022/11/20 10:05:02;;;;;;;;;;;;;;;6.94;51.17;99965.00;5074292;28;19916;-61
2022/11/20 10:07:37;;;;;;;;;;;;;;;6.90;51.21;99960.69;5074118;28;20391;-61
2022/11/20 10:10:02;;;;;;;;;;;;;;;6.92;51.57;99966.78;5072385;28;19917;-61
2022/11/20 10:12:31;;;;;;;;;;;;;;;7.05;51.02;99957.88;5055666;28;19973;-61
2022/11/20 10:14:59;;;;;;;;;;;;;;;7.00;51.16;99959.72;5076455;28;20333;-63
2022/11/20 10:17:42;;;;;;;;;;;;;;;7.17;50.82;99964.69;5073426;28;19924;-61
2022/11/20 10:20:11;;;;;;;;;;;;;;;7.10;50.72;99966.53;5074305;28;19921;-61
2022/11/20 10:22:55;;;;;;;;;;;;;;;7.04;50.77;99965.75;5106836;28;19970;-61
2022/11/20 10:25:24;;;;;;;;;;;;;;;7.08;50.66;99963.06;5073760;28;19920;-61
2022/11/20 10:27:49;;;;;;;;;;;;;;;7.23;50.54;99964.63;5074219;28;19974;-61
2022/11/20 10:30:16;;;;;;;;;;;;;;;7.23;50.64;99962.00;5073287;28;19929;-61
2022/11/20 10:32:54;;;;;;;;;;;;;;;7.18;50.59;99960.31;5073728;28;20292;-61
2022/11/20 10:35:22;;;;;;;;;;;;;;;7.10;50.96;99966.53;5071809;28;19926;-61
2022/11/20 10:38:07;;;;;;;;;;;;;;;6.98;51.12;99960.59;5073998;28;19920;-61
2022/11/20 10:40:41;;;;;;;;;;;;;;;6.91;51.21;99965.06;5071293;28;19921;-61
2022/11/20 10:43:14;;;;;;;;;;;;;;;6.87;51.31;99959.00;5073699;28;20007;-61
2022/11/20 10:45:45;;;;;;;;;;;;;;;6.93;51.22;99955.44;5073091;28;19920;-60
2022/11/20 10:48:14;;;;;;;;;;;;;;;7.00;51.12;99951.00;5086077;28;19916;-61
2022/11/20 10:50:44;;;;;;;;;;;;;;;7.08;51.26;99954.38;5081534;28;19925;-62
2022/11/20 10:53:27;;;;;;;;;;;;;;;7.12;51.17;99949.09;5070678;28;19974;-61
2022/11/20 10:55:58;;;;;;;;;;;;;;;7.11;51.26;99952.59;5072566;28;19924;-61
2022/11/20 10:58:38;;;;;;;;;;;;;;;7.14;51.15;99942.09;5070088;28;19928;-62
2022/11/20 11:01:04;;;;;;;;;;;;;;;7.14;50.88;99939.50;5072848;28;19964;-61
2022/11/20 11:03:31;;;;;;;;;;;;;;;7.14;50.96;99939.50;5094643;28;19927;-60
2022/11/20 11:06:07;;;;;;;;;;;;;;;7.08;50.98;99938.69;5086481;28;20233;-61
2022/11/20 11:08:34;;;;;;;;;;;;;;;7.13;51.47;99929.03;5070040;28;19917;-61
2022/11/20 11:11:15;;;;;;;;;;;;;;;7.22;51.10;99930.66;5086466;28;19960;-60
2022/11/20 11:13:40;;;;;;;;;;;;;;;7.30;50.73;99920.94;5105058;28;19928;-60
2022/11/20 11:16:19;;;;;;;;;;;;;;;7.33;50.78;99923.50;5073274;28;20015;-60
2022/11/20 11:18:44;;;;;;;;;;;;;;;7.33;50.45;99920.91;5074306;28;19963;-60
2022/11/20 11:21:09;;;;;;;;;;;;;;;7.25;50.51;99928.00;5065574;28;19960;-61
2022/11/20 11:23:41;;;;;;;;;;;;;;;7.15;50.75;99928.13;5093055;28;20298;-61
2022/11/20 11:26:17;;;;;;;;;;;;;;;7.22;50.73;99923.69;5073876;28;20008;-60
2022/11/20 11:28:52;;;;;;;;;;;;;;;7.35;50.63;99929.59;5072468;28;20375;-61
2022/11/20 11:31:27;;;;;;;;;;;;;;;7.32;50.51;99927.03;5072146;28;19921;-61
2022/11/20 11:34:03;;;;;;;;;;;;;;;7.38;50.73;99925.19;5091463;28;20442;-60
2022/11/20 11:36:29;;;;;;;;;;;;;;;7.37;50.54;99922.56;5068815;28;20437;-60
2022/11/20 11:38:54;;;;;;;;;;;;;;;7.47;50.38;99918.09;5053039;28;19925;-61
2022/11/20 11:41:25;;;;;;;;;;;;;;;7.38;50.19;99919.06;5072430;28;21811;-62
2022/11/20 11:46:43;;;;;;;;;;;;;;;7.25;50.67;99910.56;5068414;28;19973;-61
2022/11/20 11:49:08;;;;;;;;;;;;;;;7.35;50.68;99903.47;5086929;28;19932;-60
2022/11/20 11:51:36;;;;;;;;;;;;;;;7.50;50.51;99912.78;5079107;28;19920;-60
2022/11/20 11:54:03;;;;;;;;;;;;;;;7.53;50.29;99903.13;5080842;28;19952;-60
2022/11/20 11:56:28;;;;;;;;;;;;;;;7.64;50.13;99902.97;5073818;28;19917;-61
2022/11/20 11:58:59;;;;;;;;;;;;;;;7.63;50.24;99903.84;5073430;28;19932;-60
2022/11/20 12:01:45;;;;;;;;;;;;;;;7.74;50.09;99890.56;5072387;28;20326;-60
2022/11/20 12:04:17;;;;;;;;;;;;;;;7.79;49.88;99894.84;5077648;28;19959;-62
2022/11/20 12:06:44;;;;;;;;;;;;;;;7.80;49.73;99896.56;5090750;28;20007;-60
2022/11/20 12:09:10;;;;;;;;;;;;;;;7.77;49.85;99891.38;5071422;28;19986;-60
2022/11/20 12:11:43;;;;;;;;;;;;;;;7.71;50.37;99891.50;5070868;28;19928;-61
2022/11/20 12:14:14;;;;;;;;;;;;;;;7.53;50.63;99890.06;5069586;28;19920;-61
2022/11/20 12:16:39;;;;;;;;;;;;;;;7.54;50.59;99888.31;5071611;28;19927;-61
2022/11/20 12:19:11;;;;;;;;;;;;;;;7.52;50.71;99885.72;5069678;28;20303;-61
2022/11/20 12:21:44;;;;;;;;;;;;;;;7.41;50.94;99883.28;5070914;28;19990;-62
2022/11/20 12:24:34;;;;;;;;;;;;;;;7.31;50.91;99881.72;5082856;28;19920;-61
2022/11/20 12:27:23;;;;;;;;;;;;;;;7.15;51.41;99875.88;5104330;28;20025;-60
2022/11/20 12:30:00;;;;;;;;;;;;;;;7.12;51.61;99875.94;5072332;28;19931;-62
2022/11/20 12:32:34;;;;;;;;;;;;;;;7.12;51.60;99875.94;5076300;28;19981;-61
2022/11/20 12:35:11;;;;;;;;;;;;;;;7.19;51.77;99865.41;5077885;28;19962;-61
2022/11/20 12:37:52;;;;;;;;;;;;;;;7.19;51.66;99865.41;5080919;28;19965;-61
2022/11/20 12:40:28;;;;;;;;;;;;;;;7.18;51.92;99859.28;5078988;28;19917;-61
2022/11/20 12:46:22;;;;;;;;;;;;;;;7.10;51.87;99853.31;5074882;28;20307;-61
2022/11/20 12:49:06;;;;;;;;;;;;;;;7.13;51.96;99856.75;5072294;28;19924;-61
2022/11/20 12:51:36;;;;;;;;;;;;;;;7.23;52.09;99851.38;5075703;28;19963;-60
2022/11/20 12:54:16;;;;;;;;;;;;;;;7.16;51.73;99851.47;5072192;28;19916;-62
2022/11/20 12:56:48;;;;;;;;;;;;;;;7.07;52.36;99849.03;5072216;28;19928;-61
2022/11/20 12:59:29;;;;;;;;;;;;;;;7.00;52.58;99849.13;5092768;28;20363;-61
2022/11/20 13:02:13;;;;;;;;;;;;;;;6.85;52.75;99845.00;5073151;28;20422;-60
2022/11/20 13:04:42;;;;;;;;;;;;;;;6.80;52.66;99844.22;5084569;28;19924;-61